sensor_id;sensor_type;location;lat;lon;timestamp;P1;durP1;ratioP1;P2;durP2;ratioP2
20036;SDS011;10179;42.640;23.312;2022-10-22T00:00:47;19.10;;;10.93;;
20036;SDS011;10179;42.640;23.312;2022-10-22T00:03:12;21.35;;;11.18;;
20036;SDS011;10179;42.640;23.312;2022-10-22T00:05:38;18.95;;;10.27;;
20036;SDS011;10179;42.640;23.312;2022-10-22T00:08:03;19.83;;;10.70;;
20036;SDS011;10179;42.640;23.312;2022-10-22T00:10:29;16.27;;;9.57;;
20036;SDS011;10179;42.640;23.312;2022-10-22T00:12:54;16.98;;;9.48;;
20036;SDS011;10179;42.640;23.312;2022-10-22T00:15:20;18.83;;;9.85;;
20036;SDS011;10179;42.640;23.312;2022-10-22T00:17:45;21.90;;;10.73;;
20036;SDS011;10179;42.640;23.312;2022-10-22T00:20:13;18.05;;;10.40;;
20036;SDS011;10179;42.640;23.312;2022-10-22T00:22:39;14.23;;;9.55;;
20036;SDS011;10179;42.640;23.312;2022-10-22T00:25:04;15.70;;;9.93;;
20036;SDS011;10179;42.640;23.312;2022-10-22T00:27:30;29.35;;;9.75;;
20036;SDS011;10179;42.640;23.312;2022-10-22T00:29:55;17.45;;;9.75;;
20036;SDS011;10179;42.640;23.312;2022-10-22T00:32:20;18.77;;;9.70;;
20036;SDS011;10179;42.640;23.312;2022-10-22T00:34:46;17.77;;;10.07;;
20036;SDS011;10179;42.640;23.312;2022-10-22T00:37:11;18.98;;;9.30;;
20036;SDS011;10179;42.640;23.312;2022-10-22T00:39:37;19.27;;;9.45;;
20036;SDS011;10179;42.640;23.312;2022-10-22T00:42:02;20.38;;;9.57;;
20036;SDS011;10179;42.640;23.312;2022-10-22T00:47:29;17.05;;;9.05;;
20036;SDS011;10179;42.640;23.312;2022-10-22T00:49:58;16.60;;;9.32;;
20036;SDS011;10179;42.640;23.312;2022-10-22T00:52:24;18.60;;;10.65;;
20036;SDS011;10179;42.640;23.312;2022-10-22T00:54:51;16.33;;;9.65;;
20036;SDS011;10179;42.640;23.312;2022-10-22T00:57:17;15.90;;;9.82;;
20036;SDS011;10179;42.640;23.312;2022-10-22T00:59:44;18.23;;;9.93;;
20036;SDS011;10179;42.640;23.312;2022-10-22T01:02:10;18.02;;;9.63;;
20036;SDS011;10179;42.640;23.312;2022-10-22T01:04:35;21.90;;;11.00;;
20036;SDS011;10179;42.640;23.312;2022-10-22T01:07:01;20.67;;;10.38;;
20036;SDS011;10179;42.640;23.312;2022-10-22T01:12:17;19.38;;;10.57;;
20036;SDS011;10179;42.640;23.312;2022-10-22T01:17:12;16.55;;;9.63;;
20036;SDS011;10179;42.640;23.312;2022-10-22T01:20:09;18.67;;;9.07;;
20036;SDS011;10179;42.640;23.312;2022-10-22T01:22:46;24.98;;;9.68;;
20036;SDS011;10179;42.640;23.312;2022-10-22T01:26:10;20.35;;;9.93;;
20036;SDS011;10179;42.640;23.312;2022-10-22T01:31:06;18.13;;;10.30;;
20036;SDS011;10179;42.640;23.312;2022-10-22T01:33:34;18.67;;;9.50;;
20036;SDS011;10179;42.640;23.312;2022-10-22T01:36:01;25.02;;;9.88;;
20036;SDS011;10179;42.640;23.312;2022-10-22T01:38:28;18.95;;;10.50;;
20036;SDS011;10179;42.640;23.312;2022-10-22T01:40:54;23.35;;;11.13;;
20036;SDS011;10179;42.640;23.312;2022-10-22T01:43:21;18.95;;;11.25;;
20036;SDS011;10179;42.640;23.312;2022-10-22T01:45:50;18.92;;;11.55;;
20036;SDS011;10179;42.640;23.312;2022-10-22T02:04:14;25.48;;;11.48;;
20036;SDS011;10179;42.640;23.312;2022-10-22T02:06:44;21.38;;;10.57;;
20036;SDS011;10179;42.640;23.312;2022-10-22T02:09:14;21.77;;;10.70;;
20036;SDS011;10179;42.640;23.312;2022-10-22T02:11:43;16.98;;;9.75;;
20036;SDS011;10179;42.640;23.312;2022-10-22T02:14:10;18.83;;;10.35;;
20036;SDS011;10179;42.640;23.312;2022-10-22T02:16:40;16.88;;;9.48;;
20036;SDS011;10179;42.640;23.312;2022-10-22T02:19:18;19.17;;;9.85;;
20036;SDS011;10179;42.640;23.312;2022-10-22T02:21:46;16.63;;;9.90;;
20036;SDS011;10179;42.640;23.312;2022-10-22T02:24:11;15.85;;;10.02;;
20036;SDS011;10179;42.640;23.312;2022-10-22T02:27:00;19.73;;;11.25;;
20036;SDS011;10179;42.640;23.312;2022-10-22T02:29:29;23.83;;;13.60;;
20036;SDS011;10179;42.640;23.312;2022-10-22T02:32:03;16.05;;;10.13;;
20036;SDS011;10179;42.640;23.312;2022-10-22T02:34:33;23.38;;;12.63;;
20036;SDS011;10179;42.640;23.312;2022-10-22T02:36:59;18.10;;;10.65;;
20036;SDS011;10179;42.640;23.312;2022-10-22T02:39:26;18.83;;;12.27;;
20036;SDS011;10179;42.640;23.312;2022-10-22T02:41:53;21.65;;;11.38;;
20036;SDS011;10179;42.640;23.312;2022-10-22T02:44:20;19.55;;;11.73;;
20036;SDS011;10179;42.640;23.312;2022-10-22T02:46:46;20.75;;;11.15;;
20036;SDS011;10179;42.640;23.312;2022-10-22T02:49:12;20.88;;;10.68;;
20036;SDS011;10179;42.640;23.312;2022-10-22T02:51:38;20.92;;;11.15;;
20036;SDS011;10179;42.640;23.312;2022-10-22T02:54:03;25.77;;;11.77;;
20036;SDS011;10179;42.640;23.312;2022-10-22T02:56:28;21.48;;;12.27;;
20036;SDS011;10179;42.640;23.312;2022-10-22T02:58:54;22.88;;;13.20;;
20036;SDS011;10179;42.640;23.312;2022-10-22T03:01:19;25.02;;;11.48;;
20036;SDS011;10179;42.640;23.312;2022-10-22T03:03:44;18.25;;;10.80;;
20036;SDS011;10179;42.640;23.312;2022-10-22T03:06:10;23.90;;;10.90;;
20036;SDS011;10179;42.640;23.312;2022-10-22T03:08:35;18.88;;;10.63;;
20036;SDS011;10179;42.640;23.312;2022-10-22T03:11:01;20.70;;;11.65;;
20036;SDS011;10179;42.640;23.312;2022-10-22T03:13:26;29.10;;;13.05;;
20036;SDS011;10179;42.640;23.312;2022-10-22T03:15:51;23.00;;;12.80;;
20036;SDS011;10179;42.640;23.312;2022-10-22T03:18:17;23.10;;;11.32;;
20036;SDS011;10179;42.640;23.312;2022-10-22T03:20:43;25.30;;;11.95;;
20036;SDS011;10179;42.640;23.312;2022-10-22T03:23:09;23.90;;;11.40;;
20036;SDS011;10179;42.640;23.312;2022-10-22T03:25:36;20.13;;;10.02;;
20036;SDS011;10179;42.640;23.312;2022-10-22T03:28:06;21.20;;;10.38;;
20036;SDS011;10179;42.640;23.312;2022-10-22T03:30:35;20.42;;;9.35;;
20036;SDS011;10179;42.640;23.312;2022-10-22T03:33:00;22.52;;;10.00;;
20036;SDS011;10179;42.640;23.312;2022-10-22T03:35:26;24.67;;;9.93;;
20036;SDS011;10179;42.640;23.312;2022-10-22T03:37:51;21.20;;;10.40;;
20036;SDS011;10179;42.640;23.312;2022-10-22T03:40:17;20.30;;;9.48;;
20036;SDS011;10179;42.640;23.312;2022-10-22T03:42:44;19.38;;;10.45;;
20036;SDS011;10179;42.640;23.312;2022-10-22T03:45:10;14.95;;;8.65;;
20036;SDS011;10179;42.640;23.312;2022-10-22T03:47:35;17.48;;;9.20;;
20036;SDS011;10179;42.640;23.312;2022-10-22T03:50:01;16.30;;;8.80;;
20036;SDS011;10179;42.640;23.312;2022-10-22T03:52:27;18.92;;;9.50;;
20036;SDS011;10179;42.640;23.312;2022-10-22T03:54:53;27.60;;;12.82;;
20036;SDS011;10179;42.640;23.312;2022-10-22T03:57:18;23.98;;;12.77;;
20036;SDS011;10179;42.640;23.312;2022-10-22T03:59:44;24.35;;;13.00;;
20036;SDS011;10179;42.640;23.312;2022-10-22T04:02:11;17.75;;;10.65;;
20036;SDS011;10179;42.640;23.312;2022-10-22T04:04:38;16.33;;;9.60;;
20036;SDS011;10179;42.640;23.312;2022-10-22T04:07:04;18.50;;;10.85;;
20036;SDS011;10179;42.640;23.312;2022-10-22T04:09:30;22.10;;;11.15;;
20036;SDS011;10179;42.640;23.312;2022-10-22T04:11:56;20.88;;;11.75;;
20036;SDS011;10179;42.640;23.312;2022-10-22T04:14:22;26.58;;;13.35;;
20036;SDS011;10179;42.640;23.312;2022-10-22T04:16:47;29.13;;;14.13;;
20036;SDS011;10179;42.640;23.312;2022-10-22T04:19:13;28.25;;;15.23;;
20036;SDS011;10179;42.640;23.312;2022-10-22T04:21:38;28.23;;;14.63;;
20036;SDS011;10179;42.640;23.312;2022-10-22T04:24:04;23.42;;;12.98;;
20036;SDS011;10179;42.640;23.312;2022-10-22T04:26:29;29.55;;;12.70;;
20036;SDS011;10179;42.640;23.312;2022-10-22T04:28:55;24.92;;;12.02;;
20036;SDS011;10179;42.640;23.312;2022-10-22T04:31:21;29.45;;;12.25;;
20036;SDS011;10179;42.640;23.312;2022-10-22T04:33:51;22.48;;;12.40;;
20036;SDS011;10179;42.640;23.312;2022-10-22T04:36:22;23.80;;;12.90;;
20036;SDS011;10179;42.640;23.312;2022-10-22T04:38:51;26.45;;;14.48;;
20036;SDS011;10179;42.640;23.312;2022-10-22T04:41:23;27.85;;;14.93;;
20036;SDS011;10179;42.640;23.312;2022-10-22T04:43:54;23.83;;;12.85;;
20036;SDS011;10179;42.640;23.312;2022-10-22T04:46:20;23.42;;;13.10;;
20036;SDS011;10179;42.640;23.312;2022-10-22T04:48:46;25.95;;;13.80;;
20036;SDS011;10179;42.640;23.312;2022-10-22T04:51:13;24.05;;;12.57;;
20036;SDS011;10179;42.640;23.312;2022-10-22T04:53:41;25.58;;;13.98;;
20036;SDS011;10179;42.640;23.312;2022-10-22T04:56:07;30.30;;;15.35;;
20036;SDS011;10179;42.640;23.312;2022-10-22T04:58:47;28.77;;;14.55;;
20036;SDS011;10179;42.640;23.312;2022-10-22T05:01:14;25.23;;;13.45;;
20036;SDS011;10179;42.640;23.312;2022-10-22T05:03:45;29.00;;;15.68;;
20036;SDS011;10179;42.640;23.312;2022-10-22T05:06:11;30.92;;;14.82;;
20036;SDS011;10179;42.640;23.312;2022-10-22T05:08:38;31.27;;;14.95;;
20036;SDS011;10179;42.640;23.312;2022-10-22T05:11:10;29.50;;;15.30;;
20036;SDS011;10179;42.640;23.312;2022-10-22T05:13:36;36.58;;;16.58;;
20036;SDS011;10179;42.640;23.312;2022-10-22T05:16:01;29.33;;;15.40;;
20036;SDS011;10179;42.640;23.312;2022-10-22T05:18:26;32.47;;;14.48;;
20036;SDS011;10179;42.640;23.312;2022-10-22T05:20:52;30.90;;;14.07;;
20036;SDS011;10179;42.640;23.312;2022-10-22T05:23:17;31.98;;;14.55;;
20036;SDS011;10179;42.640;23.312;2022-10-22T05:25:42;27.95;;;13.73;;
20036;SDS011;10179;42.640;23.312;2022-10-22T05:28:08;30.02;;;15.13;;
20036;SDS011;10179;42.640;23.312;2022-10-22T05:30:33;23.75;;;13.63;;
20036;SDS011;10179;42.640;23.312;2022-10-22T05:32:59;26.27;;;15.68;;
20036;SDS011;10179;42.640;23.312;2022-10-22T05:35:24;28.00;;;15.13;;
20036;SDS011;10179;42.640;23.312;2022-10-22T05:37:49;30.67;;;15.45;;
20036;SDS011;10179;42.640;23.312;2022-10-22T05:40:15;32.80;;;14.90;;
20036;SDS011;10179;42.640;23.312;2022-10-22T05:42:40;28.30;;;15.65;;
20036;SDS011;10179;42.640;23.312;2022-10-22T05:45:06;34.00;;;16.52;;
20036;SDS011;10179;42.640;23.312;2022-10-22T05:47:32;33.60;;;16.98;;
20036;SDS011;10179;42.640;23.312;2022-10-22T05:49:57;34.33;;;17.23;;
20036;SDS011;10179;42.640;23.312;2022-10-22T05:52:23;34.75;;;17.50;;
20036;SDS011;10179;42.640;23.312;2022-10-22T05:54:48;34.28;;;16.98;;
20036;SDS011;10179;42.640;23.312;2022-10-22T05:57:14;33.22;;;16.83;;
20036;SDS011;10179;42.640;23.312;2022-10-22T05:59:39;33.45;;;18.02;;
20036;SDS011;10179;42.640;23.312;2022-10-22T06:02:05;30.00;;;16.25;;
20036;SDS011;10179;42.640;23.312;2022-10-22T06:04:32;36.03;;;17.25;;
20036;SDS011;10179;42.640;23.312;2022-10-22T06:06:58;39.15;;;16.92;;
20036;SDS011;10179;42.640;23.312;2022-10-22T06:09:24;34.08;;;16.75;;
20036;SDS011;10179;42.640;23.312;2022-10-22T06:11:53;39.58;;;17.73;;
20036;SDS011;10179;42.640;23.312;2022-10-22T06:14:20;33.85;;;17.60;;
20036;SDS011;10179;42.640;23.312;2022-10-22T06:16:46;31.42;;;16.67;;
20036;SDS011;10179;42.640;23.312;2022-10-22T06:19:13;32.53;;;17.25;;
20036;SDS011;10179;42.640;23.312;2022-10-22T06:21:40;30.67;;;17.05;;
20036;SDS011;10179;42.640;23.312;2022-10-22T06:24:05;31.73;;;17.10;;
20036;SDS011;10179;42.640;23.312;2022-10-22T06:26:31;31.77;;;16.42;;
20036;SDS011;10179;42.640;23.312;2022-10-22T06:28:57;36.65;;;16.42;;
20036;SDS011;10179;42.640;23.312;2022-10-22T06:31:23;34.50;;;17.95;;
20036;SDS011;10179;42.640;23.312;2022-10-22T06:33:50;33.97;;;16.50;;
20036;SDS011;10179;42.640;23.312;2022-10-22T06:36:16;37.35;;;17.40;;
20036;SDS011;10179;42.640;23.312;2022-10-22T06:38:44;34.08;;;15.85;;
20036;SDS011;10179;42.640;23.312;2022-10-22T06:41:10;29.02;;;17.33;;
20036;SDS011;10179;42.640;23.312;2022-10-22T06:43:37;53.83;;;17.65;;
20036;SDS011;10179;42.640;23.312;2022-10-22T06:46:04;38.35;;;17.58;;
20036;SDS011;10179;42.640;23.312;2022-10-22T06:48:32;34.35;;;15.63;;
20036;SDS011;10179;42.640;23.312;2022-10-22T06:51:01;37.10;;;16.90;;
20036;SDS011;10179;42.640;23.312;2022-10-22T06:53:28;34.45;;;16.50;;
20036;SDS011;10179;42.640;23.312;2022-10-22T06:55:54;36.08;;;16.92;;
20036;SDS011;10179;42.640;23.312;2022-10-22T06:58:19;31.63;;;16.88;;
20036;SDS011;10179;42.640;23.312;2022-10-22T07:00:45;37.20;;;17.85;;
20036;SDS011;10179;42.640;23.312;2022-10-22T07:03:11;34.00;;;18.25;;
20036;SDS011;10179;42.640;23.312;2022-10-22T07:05:37;31.65;;;17.27;;
20036;SDS011;10179;42.640;23.312;2022-10-22T07:08:03;30.13;;;15.80;;
20036;SDS011;10179;42.640;23.312;2022-10-22T07:10:29;34.38;;;17.17;;
20036;SDS011;10179;42.640;23.312;2022-10-22T07:12:54;46.47;;;17.65;;
20036;SDS011;10179;42.640;23.312;2022-10-22T07:15:20;31.77;;;17.75;;
20036;SDS011;10179;42.640;23.312;2022-10-22T07:17:45;30.80;;;17.38;;
20036;SDS011;10179;42.640;23.312;2022-10-22T07:20:10;37.47;;;17.17;;
20036;SDS011;10179;42.640;23.312;2022-10-22T07:22:36;38.55;;;18.65;;
20036;SDS011;10179;42.640;23.312;2022-10-22T07:25:02;37.78;;;18.58;;
20036;SDS011;10179;42.640;23.312;2022-10-22T07:27:28;35.58;;;17.27;;
20036;SDS011;10179;42.640;23.312;2022-10-22T07:29:53;34.70;;;16.98;;
20036;SDS011;10179;42.640;23.312;2022-10-22T07:32:19;37.47;;;17.23;;
20036;SDS011;10179;42.640;23.312;2022-10-22T07:34:44;33.00;;;16.95;;
20036;SDS011;10179;42.640;23.312;2022-10-22T07:37:10;40.92;;;17.67;;
20036;SDS011;10179;42.640;23.312;2022-10-22T07:39:35;32.33;;;16.92;;
20036;SDS011;10179;42.640;23.312;2022-10-22T07:42:01;31.48;;;15.98;;
20036;SDS011;10179;42.640;23.312;2022-10-22T07:44:26;31.25;;;17.08;;
20036;SDS011;10179;42.640;23.312;2022-10-22T07:46:51;38.20;;;17.23;;
20036;SDS011;10179;42.640;23.312;2022-10-22T07:49:17;34.00;;;15.75;;
20036;SDS011;10179;42.640;23.312;2022-10-22T07:51:42;32.28;;;16.38;;
20036;SDS011;10179;42.640;23.312;2022-10-22T07:54:08;27.02;;;15.95;;
20036;SDS011;10179;42.640;23.312;2022-10-22T07:56:33;28.25;;;15.00;;
20036;SDS011;10179;42.640;23.312;2022-10-22T07:58:58;28.80;;;16.20;;
20036;SDS011;10179;42.640;23.312;2022-10-22T08:01:24;38.83;;;16.83;;
20036;SDS011;10179;42.640;23.312;2022-10-22T08:03:49;27.92;;;15.55;;
20036;SDS011;10179;42.640;23.312;2022-10-22T08:06:15;30.10;;;14.82;;
20036;SDS011;10179;42.640;23.312;2022-10-22T08:08:43;25.80;;;14.77;;
20036;SDS011;10179;42.640;23.312;2022-10-22T08:11:09;34.97;;;16.30;;
20036;SDS011;10179;42.640;23.312;2022-10-22T08:13:35;31.02;;;15.55;;
20036;SDS011;10179;42.640;23.312;2022-10-22T08:16:01;26.25;;;13.23;;
20036;SDS011;10179;42.640;23.312;2022-10-22T08:18:26;25.55;;;14.15;;
20036;SDS011;10179;42.640;23.312;2022-10-22T08:20:52;26.33;;;13.88;;
20036;SDS011;10179;42.640;23.312;2022-10-22T08:23:18;22.80;;;13.10;;
20036;SDS011;10179;42.640;23.312;2022-10-22T08:25:44;24.92;;;12.80;;
20036;SDS011;10179;42.640;23.312;2022-10-22T08:28:09;19.67;;;11.73;;
20036;SDS011;10179;42.640;23.312;2022-10-22T08:30:35;22.40;;;12.82;;
20036;SDS011;10179;42.640;23.312;2022-10-22T08:33:02;21.67;;;13.35;;
20036;SDS011;10179;42.640;23.312;2022-10-22T08:35:28;27.70;;;14.30;;
20036;SDS011;10179;42.640;23.312;2022-10-22T08:37:54;25.95;;;13.88;;
20036;SDS011;10179;42.640;23.312;2022-10-22T08:40:25;27.33;;;13.77;;
20036;SDS011;10179;42.640;23.312;2022-10-22T08:43:01;23.90;;;12.43;;
20036;SDS011;10179;42.640;23.312;2022-10-22T08:46:23;27.02;;;12.20;;
20036;SDS011;10179;42.640;23.312;2022-10-22T08:48:57;30.17;;;13.00;;
20036;SDS011;10179;42.640;23.312;2022-10-22T08:51:26;25.02;;;13.00;;
20036;SDS011;10179;42.640;23.312;2022-10-22T08:56:46;23.33;;;12.90;;
20036;SDS011;10179;42.640;23.312;2022-10-22T08:59:31;23.00;;;12.52;;
20036;SDS011;10179;42.640;23.312;2022-10-22T09:02:13;26.75;;;12.50;;
20036;SDS011;10179;42.640;23.312;2022-10-22T09:04:53;28.23;;;13.60;;
20036;SDS011;10179;42.640;23.312;2022-10-22T09:07:28;23.45;;;12.68;;
20036;SDS011;10179;42.640;23.312;2022-10-22T09:09:53;26.50;;;13.32;;
20036;SDS011;10179;42.640;23.312;2022-10-22T09:12:23;22.75;;;12.48;;
20036;SDS011;10179;42.640;23.312;2022-10-22T09:14:51;24.48;;;13.02;;
20036;SDS011;10179;42.640;23.312;2022-10-22T09:17:35;30.30;;;13.43;;
20036;SDS011;10179;42.640;23.312;2022-10-22T09:20:12;26.17;;;14.00;;
20036;SDS011;10179;42.640;23.312;2022-10-22T09:28:06;28.02;;;15.13;;
20036;SDS011;10179;42.640;23.312;2022-10-22T09:30:34;27.08;;;15.07;;
20036;SDS011;10179;42.640;23.312;2022-10-22T09:35:32;27.10;;;14.90;;
20036;SDS011;10179;42.640;23.312;2022-10-22T09:38:05;26.38;;;14.52;;
20036;SDS011;10179;42.640;23.312;2022-10-22T09:40:31;25.90;;;14.10;;
20036;SDS011;10179;42.640;23.312;2022-10-22T09:43:08;26.20;;;14.32;;
20036;SDS011;10179;42.640;23.312;2022-10-22T09:45:39;26.38;;;14.32;;
20036;SDS011;10179;42.640;23.312;2022-10-22T09:48:28;23.65;;;13.90;;
20036;SDS011;10179;42.640;23.312;2022-10-22T09:51:03;28.40;;;14.55;;
20036;SDS011;10179;42.640;23.312;2022-10-22T09:53:30;29.80;;;14.73;;
20036;SDS011;10179;42.640;23.312;2022-10-22T09:56:00;32.83;;;14.50;;
20036;SDS011;10179;42.640;23.312;2022-10-22T09:58:44;25.42;;;13.73;;
20036;SDS011;10179;42.640;23.312;2022-10-22T10:01:21;24.20;;;13.18;;
20036;SDS011;10179;42.640;23.312;2022-10-22T10:03:49;23.27;;;13.38;;
20036;SDS011;10179;42.640;23.312;2022-10-22T10:06:19;26.95;;;13.52;;
20036;SDS011;10179;42.640;23.312;2022-10-22T10:08:45;23.70;;;12.77;;
20036;SDS011;10179;42.640;23.312;2022-10-22T10:14:00;28.15;;;13.95;;
20036;SDS011;10179;42.640;23.312;2022-10-22T10:27:53;30.55;;;14.18;;
20036;SDS011;10179;42.640;23.312;2022-10-22T10:30:25;26.35;;;13.70;;
20036;SDS011;10179;42.640;23.312;2022-10-22T10:33:03;43.83;;;15.48;;
20036;SDS011;10179;42.640;23.312;2022-10-22T10:35:39;27.35;;;13.80;;
20036;SDS011;10179;42.640;23.312;2022-10-22T10:40:51;29.48;;;14.52;;
20036;SDS011;10179;42.640;23.312;2022-10-22T10:59:41;33.72;;;13.43;;
20036;SDS011;10179;42.640;23.312;2022-10-22T11:07:47;32.50;;;13.13;;
20036;SDS011;10179;42.640;23.312;2022-10-22T11:12:46;25.38;;;13.00;;
20036;SDS011;10179;42.640;23.312;2022-10-22T11:17:49;26.52;;;12.10;;
20036;SDS011;10179;42.640;23.312;2022-10-22T11:21:01;23.02;;;12.13;;
20036;SDS011;10179;42.640;23.312;2022-10-22T11:23:14;26.20;;;11.98;;
20036;SDS011;10179;42.640;23.312;2022-10-22T11:25:44;36.55;;;12.60;;
20036;SDS011;10179;42.640;23.312;2022-10-22T11:28:16;20.52;;;11.55;;
20036;SDS011;10179;42.640;23.312;2022-10-22T11:30:52;28.65;;;11.52;;
20036;SDS011;10179;42.640;23.312;2022-10-22T11:33:23;27.63;;;11.88;;
20036;SDS011;10179;42.640;23.312;2022-10-22T11:35:58;28.23;;;11.07;;
20036;SDS011;10179;42.640;23.312;2022-10-22T11:38:26;19.25;;;10.95;;
20036;SDS011;10179;42.640;23.312;2022-10-22T11:44:36;20.52;;;10.07;;
20036;SDS011;10179;42.640;23.312;2022-10-22T11:49:26;21.08;;;10.43;;
20036;SDS011;10179;42.640;23.312;2022-10-22T11:52:22;17.33;;;10.25;;
20036;SDS011;10179;42.640;23.312;2022-10-22T11:54:54;19.25;;;9.75;;
20036;SDS011;10179;42.640;23.312;2022-10-22T11:57:26;18.70;;;9.23;;
20036;SDS011;10179;42.640;23.312;2022-10-22T12:00:00;22.08;;;10.10;;
20036;SDS011;10179;42.640;23.312;2022-10-22T12:02:38;17.45;;;9.07;;
20036;SDS011;10179;42.640;23.312;2022-10-22T12:07:54;22.40;;;8.73;;
20036;SDS011;10179;42.640;23.312;2022-10-22T12:10:26;15.32;;;9.25;;
20036;SDS011;10179;42.640;23.312;2022-10-22T12:13:14;16.23;;;8.90;;
20036;SDS011;10179;42.640;23.312;2022-10-22T12:15:46;16.27;;;9.10;;
20036;SDS011;10179;42.640;23.312;2022-10-22T12:18:15;15.50;;;8.30;;
20036;SDS011;10179;42.640;23.312;2022-10-22T12:20:41;16.83;;;8.07;;
20036;SDS011;10179;42.640;23.312;2022-10-22T12:23:10;14.25;;;8.02;;
20036;SDS011;10179;42.640;23.312;2022-10-22T12:25:37;18.88;;;8.88;;
20036;SDS011;10179;42.640;23.312;2022-10-22T12:28:03;22.33;;;9.13;;
20036;SDS011;10179;42.640;23.312;2022-10-22T12:30:30;16.30;;;8.20;;
20036;SDS011;10179;42.640;23.312;2022-10-22T12:32:59;20.75;;;8.98;;
20036;SDS011;10179;42.640;23.312;2022-10-22T12:35:29;17.15;;;8.68;;
20036;SDS011;10179;42.640;23.312;2022-10-22T12:38:00;16.70;;;8.70;;
20036;SDS011;10179;42.640;23.312;2022-10-22T12:40:30;17.13;;;8.57;;
20036;SDS011;10179;42.640;23.312;2022-10-22T12:42:59;19.05;;;8.70;;
20036;SDS011;10179;42.640;23.312;2022-10-22T12:45:44;19.73;;;8.68;;
20036;SDS011;10179;42.640;23.312;2022-10-22T12:48:18;19.40;;;8.82;;
20036;SDS011;10179;42.640;23.312;2022-10-22T12:50:48;18.38;;;7.97;;
20036;SDS011;10179;42.640;23.312;2022-10-22T12:55:46;15.52;;;8.25;;
20036;SDS011;10179;42.640;23.312;2022-10-22T12:58:15;19.80;;;8.30;;
20036;SDS011;10179;42.640;23.312;2022-10-22T13:00:43;17.88;;;8.48;;
20036;SDS011;10179;42.640;23.312;2022-10-22T13:03:24;14.80;;;7.93;;
20036;SDS011;10179;42.640;23.312;2022-10-22T13:08:43;14.63;;;7.38;;
20036;SDS011;10179;42.640;23.312;2022-10-22T13:11:10;14.63;;;8.10;;
20036;SDS011;10179;42.640;23.312;2022-10-22T13:18:40;21.98;;;8.00;;
20036;SDS011;10179;42.640;23.312;2022-10-22T13:21:19;15.77;;;7.82;;
20036;SDS011;10179;42.640;23.312;2022-10-22T13:23:55;16.05;;;7.55;;
20036;SDS011;10179;42.640;23.312;2022-10-22T13:26:30;12.32;;;7.32;;
20036;SDS011;10179;42.640;23.312;2022-10-22T13:28:57;14.80;;;7.40;;
20036;SDS011;10179;42.640;23.312;2022-10-22T13:31:29;14.55;;;7.57;;
20036;SDS011;10179;42.640;23.312;2022-10-22T13:33:58;18.33;;;8.05;;
20036;SDS011;10179;42.640;23.312;2022-10-22T13:36:30;21.77;;;8.32;;
20036;SDS011;10179;42.640;23.312;2022-10-22T13:38:56;16.27;;;8.15;;
20036;SDS011;10179;42.640;23.312;2022-10-22T13:41:23;11.68;;;7.30;;
20036;SDS011;10179;42.640;23.312;2022-10-22T13:43:51;13.43;;;7.93;;
20036;SDS011;10179;42.640;23.312;2022-10-22T13:46:17;13.48;;;7.25;;
20036;SDS011;10179;42.640;23.312;2022-10-22T13:48:44;17.73;;;8.50;;
20036;SDS011;10179;42.640;23.312;2022-10-22T13:51:12;15.77;;;8.65;;
20036;SDS011;10179;42.640;23.312;2022-10-22T13:53:40;26.08;;;8.38;;
20036;SDS011;10179;42.640;23.312;2022-10-22T13:56:09;19.33;;;8.23;;
20036;SDS011;10179;42.640;23.312;2022-10-22T13:58:38;16.10;;;8.27;;
20036;SDS011;10179;42.640;23.312;2022-10-22T14:01:03;17.60;;;9.15;;
20036;SDS011;10179;42.640;23.312;2022-10-22T14:03:32;16.50;;;7.78;;
20036;SDS011;10179;42.640;23.312;2022-10-22T14:05:59;13.70;;;7.95;;
20036;SDS011;10179;42.640;23.312;2022-10-22T14:08:25;18.30;;;8.52;;
20036;SDS011;10179;42.640;23.312;2022-10-22T14:10:52;15.20;;;7.65;;
20036;SDS011;10179;42.640;23.312;2022-10-22T14:13:18;14.38;;;7.47;;
20036;SDS011;10179;42.640;23.312;2022-10-22T14:15:44;14.57;;;7.30;;
20036;SDS011;10179;42.640;23.312;2022-10-22T14:18:14;23.45;;;10.02;;
20036;SDS011;10179;42.640;23.312;2022-10-22T14:20:48;34.15;;;14.63;;
20036;SDS011;10179;42.640;23.312;2022-10-22T14:23:20;35.55;;;16.48;;
20036;SDS011;10179;42.640;23.312;2022-10-22T14:25:47;43.15;;;18.67;;
20036;SDS011;10179;42.640;23.312;2022-10-22T14:28:15;47.55;;;18.05;;
20036;SDS011;10179;42.640;23.312;2022-10-22T14:30:41;35.08;;;17.10;;
20036;SDS011;10179;42.640;23.312;2022-10-22T14:33:14;39.80;;;17.10;;
20036;SDS011;10179;42.640;23.312;2022-10-22T14:35:46;34.45;;;15.60;;
20036;SDS011;10179;42.640;23.312;2022-10-22T14:38:12;35.58;;;16.50;;
20036;SDS011;10179;42.640;23.312;2022-10-22T14:40:38;33.90;;;15.60;;
20036;SDS011;10179;42.640;23.312;2022-10-22T14:43:06;31.63;;;15.25;;
20036;SDS011;10179;42.640;23.312;2022-10-22T14:45:34;26.85;;;14.65;;
20036;SDS011;10179;42.640;23.312;2022-10-22T14:47:59;28.63;;;13.73;;
20036;SDS011;10179;42.640;23.312;2022-10-22T14:50:25;31.02;;;14.93;;
20036;SDS011;10179;42.640;23.312;2022-10-22T14:52:51;33.92;;;15.02;;
20036;SDS011;10179;42.640;23.312;2022-10-22T14:55:17;29.55;;;14.82;;
20036;SDS011;10179;42.640;23.312;2022-10-22T14:57:43;27.23;;;14.32;;
20036;SDS011;10179;42.640;23.312;2022-10-22T15:00:14;36.60;;;15.40;;
20036;SDS011;10179;42.640;23.312;2022-10-22T15:02:40;23.90;;;12.35;;
20036;SDS011;10179;42.640;23.312;2022-10-22T15:05:06;25.83;;;13.25;;
20036;SDS011;10179;42.640;23.312;2022-10-22T15:07:32;23.95;;;12.63;;
20036;SDS011;10179;42.640;23.312;2022-10-22T15:09:58;20.90;;;12.63;;
20036;SDS011;10179;42.640;23.312;2022-10-22T15:12:23;27.17;;;13.45;;
20036;SDS011;10179;42.640;23.312;2022-10-22T15:14:49;23.83;;;13.00;;
20036;SDS011;10179;42.640;23.312;2022-10-22T15:17:15;21.48;;;10.57;;
20036;SDS011;10179;42.640;23.312;2022-10-22T15:19:41;28.48;;;12.57;;
20036;SDS011;10179;42.640;23.312;2022-10-22T15:22:07;26.27;;;15.13;;
20036;SDS011;10179;42.640;23.312;2022-10-22T15:24:33;34.78;;;17.50;;
20036;SDS011;10179;42.640;23.312;2022-10-22T15:26:59;31.08;;;15.45;;
20036;SDS011;10179;42.640;23.312;2022-10-22T15:29:25;33.33;;;16.67;;
20036;SDS011;10179;42.640;23.312;2022-10-22T15:31:51;31.88;;;15.25;;
20036;SDS011;10179;42.640;23.312;2022-10-22T15:34:20;33.33;;;16.00;;
20036;SDS011;10179;42.640;23.312;2022-10-22T15:36:47;22.92;;;13.43;;
20036;SDS011;10179;42.640;23.312;2022-10-22T15:39:13;30.73;;;14.18;;
20036;SDS011;10179;42.640;23.312;2022-10-22T15:41:39;28.10;;;15.55;;
20036;SDS011;10179;42.640;23.312;2022-10-22T15:44:04;30.70;;;14.05;;
20036;SDS011;10179;42.640;23.312;2022-10-22T15:46:30;31.90;;;15.60;;
20036;SDS011;10179;42.640;23.312;2022-10-22T15:48:57;31.52;;;15.73;;
20036;SDS011;10179;42.640;23.312;2022-10-22T15:51:23;31.80;;;16.48;;
20036;SDS011;10179;42.640;23.312;2022-10-22T15:53:50;29.95;;;16.35;;
20036;SDS011;10179;42.640;23.312;2022-10-22T15:56:16;29.02;;;15.00;;
20036;SDS011;10179;42.640;23.312;2022-10-22T15:58:42;32.33;;;16.98;;